Time;durP1;ratioP1;P1;durP2;ratioP2;P2;SDS_P1;SDS_P2;PMS_P1;PMS_P2;Temp;Humidity;BMP_temperature;BMP_pressure;BME280_temperature;BME280_humidity;BME280_pressure;Samples;Min_cycle;Max_cycle;Signal;HPM_P1;HPM_P2
2021/01/18 00:01:30;;;;;;;18.88;6.35;;;5.90;99.90;;;;;;6280993;22;20349;-88
2021/01/18 00:03:57;;;;;;;20.88;6.93;;;5.90;99.90;;;;;;6280076;22;20027;-88
2021/01/18 00:06:23;;;;;;;13.80;7.20;;;5.90;99.90;;;;;;6279815;22;20015;-88
2021/01/18 00:08:50;;;;;;;15.93;5.30;;;5.90;99.90;;;;;;6280229;22;20011;-87
2021/01/18 00:11:19;;;;;;;15.75;6.22;;;5.90;99.90;;;;;;6280443;22;20020;-88
2021/01/18 00:13:46;;;;;;;14.15;5.57;;;6.00;99.90;;;;;;6280113;22;20323;-88
2021/01/18 00:16:17;;;;;;;15.23;5.72;;;6.00;99.90;;;;;;6279993;22;20065;-88
2021/01/18 00:18:45;;;;;;;12.80;5.15;;;6.00;99.90;;;;;;6280626;22;20072;-88
2021/01/18 00:21:12;;;;;;;15.52;4.40;;;6.00;99.90;;;;;;6281345;22;20076;-88
2021/01/18 00:23:39;;;;;;;10.82;3.83;;;6.00;99.90;;;;;;6282502;22;20327;-88
2021/01/18 00:26:07;;;;;;;10.52;5.30;;;6.00;99.90;;;;;;6282098;22;20015;-88
2021/01/18 00:28:35;;;;;;;12.90;5.82;;;6.00;99.90;;;;;;6309447;22;20023;-88
2021/01/18 00:31:03;;;;;;;18.88;6.30;;;6.00;99.90;;;;;;6282265;22;20076;-87
2021/01/18 00:33:31;;;;;;;12.25;4.45;;;6.00;99.90;;;;;;6282384;22;20283;-88
2021/01/18 00:35:59;;;;;;;11.60;4.15;;;6.00;99.90;;;;;;6281953;22;20019;-88
2021/01/18 00:38:25;;;;;;;10.55;3.85;;;6.00;99.90;;;;;;6282393;22;20072;-88
2021/01/18 00:40:52;;;;;;;16.45;5.20;;;6.00;99.90;;;;;;6282304;22;20012;-88
2021/01/18 00:43:18;;;;;;;16.50;5.70;;;6.00;99.90;;;;;;6282573;22;20034;-88
2021/01/18 00:45:45;;;;;;;16.73;6.57;;;6.10;99.90;;;;;;6281867;22;20094;-87
2021/01/18 00:48:11;;;;;;;16.70;8.15;;;6.00;99.90;;;;;;6282289;22;20434;-88
2021/01/18 00:50:38;;;;;;;18.02;6.97;;;6.10;99.90;;;;;;6281710;22;20016;-88
2021/01/18 00:53:05;;;;;;;13.80;7.05;;;6.10;99.90;;;;;;6281762;22;20616;-88
2021/01/18 00:55:31;;;;;;;16.67;6.68;;;6.10;99.90;;;;;;6282691;22;20365;-88
2021/01/18 00:57:58;;;;;;;10.82;5.72;;;6.10;99.90;;;;;;6281606;22;20019;-88
2021/01/18 01:00:27;;;;;;;12.13;4.93;;;6.10;99.90;;;;;;6281919;22;20026;-88
2021/01/18 01:02:56;;;;;;;10.60;4.45;;;6.10;99.90;;;;;;6282579;22;20026;-88
2021/01/18 01:05:26;;;;;;;12.65;5.53;;;6.10;99.90;;;;;;6281752;22;20354;-88
2021/01/18 01:07:55;;;;;;;17.65;7.15;;;6.10;99.90;;;;;;6281938;22;20026;-88
2021/01/18 01:10:22;;;;;;;;;;;6.10;99.90;;;;;;6282683;22;20011;-88
2021/01/18 01:13:00;;;;;;;11.65;6.15;;;6.10;99.90;;;;;;6281876;22;19990;-88
2021/01/18 01:15:28;;;;;;;15.98;6.53;;;6.10;99.90;;;;;;6280811;22;20443;-88
2021/01/18 01:17:55;;;;;;;18.05;7.80;;;6.10;99.90;;;;;;6281666;22;20019;-88
2021/01/18 01:20:23;;;;;;;21.65;6.95;;;6.00;99.90;;;;;;6282197;22;20015;-88
2021/01/18 01:22:50;;;;;;;10.40;6.40;;;6.00;99.90;;;;;;6282169;22;20022;-88
2021/01/18 01:25:19;;;;;;;12.70;6.68;;;6.00;99.90;;;;;;6281771;22;20011;-88
2021/01/18 01:27:46;;;;;;;13.68;6.20;;;6.00;99.90;;;;;;6281725;22;20015;-88
2021/01/18 01:30:21;;;;;;;10.73;5.80;;;6.00;99.90;;;;;;6281235;22;20016;-88
2021/01/18 01:32:49;;;;;;;11.45;5.63;;;6.00;99.90;;;;;;6281216;22;20015;-88
2021/01/18 01:35:21;;;;;;;13.40;6.47;;;6.00;99.90;;;;;;6281735;22;20019;-86
2021/01/18 01:37:48;;;;;;;15.73;6.88;;;6.00;99.90;;;;;;6282398;22;20019;-87
2021/01/18 01:40:16;;;;;;;13.88;6.57;;;6.00;99.90;;;;;;6281353;22;20459;-88
2021/01/18 01:42:43;;;;;;;14.07;6.18;;;6.00;99.90;;;;;;6281667;22;20011;-88
2021/01/18 01:45:12;;;;;;;14.32;6.32;;;6.00;99.90;;;;;;6281675;22;20023;-87
2021/01/18 01:47:45;;;;;;;17.98;7.45;;;6.00;99.90;;;;;;6281364;22;20038;-88
2021/01/18 01:50:17;;;;;;;13.40;6.18;;;6.00;99.90;;;;;;6281335;22;20043;-88
2021/01/18 01:52:56;;;;;;;15.98;7.47;;;6.00;99.90;;;;;;6308642;22;20038;-88
2021/01/18 01:55:33;;;;;;;19.83;10.27;;;6.00;99.90;;;;;;6281430;22;20023;-88
2021/01/18 01:58:01;;;;;;;21.95;12.63;;;6.10;99.90;;;;;;6281989;22;20022;-88
2021/01/18 02:00:38;;;;;;;20.10;11.70;;;6.10;99.90;;;;;;6281405;22;20011;-88
2021/01/18 02:03:30;;;;;;;22.60;12.13;;;6.10;99.90;;;;;;6281719;22;20019;-88
2021/01/18 02:05:56;;;;;;;18.35;10.73;;;6.10;99.90;;;;;;6280960;22;20505;-88
2021/01/18 02:08:23;;;;;;;16.77;11.80;;;6.10;99.90;;;;;;6281788;22;20019;-88
2021/01/18 02:10:50;;;;;;;18.30;12.07;;;6.00;99.90;;;;;;6281674;22;20011;-87
2021/01/18 02:13:53;;;;;;;22.17;12.73;;;6.00;99.90;;;;;;6280966;22;20019;-88
2021/01/18 02:16:53;;;;;;;21.38;13.43;;;6.00;99.90;;;;;;6280866;22;20019;-88
2021/01/18 02:19:38;;;;;;;23.42;13.88;;;6.00;99.90;;;;;;6281570;22;20023;-88
2021/01/18 02:22:19;;;;;;;20.55;12.73;;;6.00;99.90;;;;;;6280882;22;20011;-88
2021/01/18 02:25:07;;;;;;;28.70;13.48;;;6.00;99.90;;;;;;6281135;22;20030;-88
2021/01/18 02:28:05;;;;;;;24.52;14.50;;;6.00;99.90;;;;;;6280879;22;20041;-88
2021/01/18 02:31:04;;;;;;;23.65;14.63;;;6.00;99.90;;;;;;6251511;22;20019;-88
2021/01/18 02:33:33;;;;;;;;;;;6.00;99.90;;;;;;6129614;23;20018;-88
2021/01/18 02:36:02;;;;;;;28.42;12.82;;;5.90;99.90;;;;;;6128954;23;19916;-88
2021/01/18 02:39:06;;;;;;;27.08;13.20;;;5.90;99.90;;;;;;6129266;23;20027;-88
2021/01/18 02:41:56;;;;;;;19.83;11.63;;;5.90;99.90;;;;;;6129227;23;20017;-87
2021/01/18 02:44:26;;;;;;;20.35;11.82;;;5.90;99.90;;;;;;6128960;23;20025;-88
2021/01/18 02:46:53;;;;;;;21.50;12.35;;;6.00;99.90;;;;;;6129136;23;20044;-87
2021/01/18 02:49:21;;;;;;;21.10;11.73;;;6.00;99.90;;;;;;6129618;23;20365;-88
2021/01/18 02:52:03;;;;;;;18.15;9.65;;;6.00;99.90;;;;;;6129766;23;20022;-88
2021/01/18 02:54:29;;;;;;;19.77;8.68;;;6.00;99.90;;;;;;6129086;23;20021;-88
2021/01/18 02:56:56;;;;;;;17.23;8.02;;;6.00;99.90;;;;;;6129096;23;20014;-88
2021/01/18 02:59:23;;;;;;;17.20;8.90;;;6.00;99.90;;;;;;6129192;23;20033;-88
2021/01/18 03:02:26;;;;;;;12.38;6.15;;;6.00;99.90;;;;;;6153636;23;20021;-88
2021/01/18 03:05:02;;;;;;;17.08;7.80;;;6.00;99.90;;;;;;6128996;23;20024;-89
2021/01/18 03:07:39;;;;;;;21.75;6.78;;;6.00;99.90;;;;;;6129016;23;20031;-88
2021/01/18 03:10:12;;;;;;;12.05;5.35;;;6.00;99.90;;;;;;6176605;22;20334;-88
2021/01/18 03:12:55;;;;;;;13.02;4.13;;;6.00;99.90;;;;;;6280874;22;20304;-89
2021/01/18 03:15:25;;;;;;;10.38;3.97;;;6.00;99.90;;;;;;6279456;22;20019;-89
2021/01/18 03:17:59;;;;;;;8.02;3.20;;;6.00;99.90;;;;;;6280610;22;20016;-88
2021/01/18 03:20:25;;;;;;;8.75;3.22;;;6.00;99.90;;;;;;6280827;22;20077;-88
2021/01/18 03:22:52;;;;;;;12.45;3.97;;;6.00;99.90;;;;;;6281162;22;20034;-88
2021/01/18 03:25:19;;;;;;;13.75;3.88;;;6.00;99.90;;;;;;6308221;22;20072;-88
2021/01/18 03:27:53;;;;;;;12.82;3.90;;;6.00;99.90;;;;;;6280591;22;20019;-88
2021/01/18 03:30:21;;;;;;;12.02;3.20;;;6.00;99.90;;;;;;6280894;22;20033;-88
2021/01/18 03:32:53;;;;;;;18.60;3.58;;;6.00;99.90;;;;;;6280399;22;20019;-88
2021/01/18 03:35:24;;;;;;;11.88;3.35;;;6.00;99.90;;;;;;6280542;22;20019;-88
2021/01/18 03:37:53;;;;;;;13.18;3.92;;;6.10;99.90;;;;;;6280863;22;20377;-88
2021/01/18 03:40:21;;;;;;;16.83;3.83;;;6.10;99.90;;;;;;6280913;22;20022;-88
2021/01/18 03:42:58;;;;;;;12.57;3.10;;;6.10;99.90;;;;;;6280703;22;20370;-88
2021/01/18 03:45:26;;;;;;;19.20;4.60;;;6.10;99.90;;;;;;6280852;22;20030;-88
2021/01/18 03:47:53;;;;;;;18.08;4.32;;;6.10;99.90;;;;;;6280666;22;20023;-88
2021/01/18 03:50:19;;;;;;;11.77;3.83;;;6.10;99.90;;;;;;6280743;22;20019;-88
2021/01/18 03:52:47;;;;;;;12.38;3.63;;;6.10;99.90;;;;;;6280582;22;20030;-88
2021/01/18 03:55:14;;;;;;;12.00;4.73;;;6.10;99.90;;;;;;6279742;22;20016;-88
2021/01/18 03:57:44;;;;;;;16.17;4.82;;;6.10;99.90;;;;;;6280520;22;20038;-88
2021/01/18 04:00:11;;;;;;;13.90;4.88;;;6.10;99.90;;;;;;6280466;22;20011;-88
2021/01/18 04:02:39;;;;;;;12.27;4.88;;;6.20;99.90;;;;;;6280124;22;20022;-88
2021/01/18 04:05:06;;;;;;;17.63;4.97;;;6.20;99.90;;;;;;6280466;22;20011;-87
2021/01/18 04:07:32;;;;;;;12.20;4.43;;;6.20;99.90;;;;;;6281096;22;20019;-88
2021/01/18 04:09:58;;;;;;;12.65;4.65;;;6.20;99.90;;;;;;6279787;22;20304;-88
2021/01/18 04:12:25;;;;;;;13.80;4.50;;;6.20;99.90;;;;;;6279670;22;20019;-88
2021/01/18 04:14:51;;;;;;;18.38;4.75;;;6.20;99.90;;;;;;6273942;22;20016;-88
2021/01/18 04:17:20;;;;;;;13.07;5.25;;;6.20;99.90;;;;;;6274666;22;20030;-88
2021/01/18 04:19:47;;;;;;;;;;;6.20;99.90;;;;;;6275905;22;20016;-88
2021/01/18 04:22:13;;;;;;;13.88;4.35;;;6.20;99.90;;;;;;6274757;22;20222;-88
2021/01/18 04:24:40;;;;;;;14.88;5.00;;;6.20;99.90;;;;;;6275396;22;20090;-88
2021/01/18 04:27:10;;;;;;;13.05;4.40;;;6.20;99.90;;;;;;6274638;22;20371;-88
2021/01/18 04:29:36;;;;;;;12.23;4.78;;;6.20;99.90;;;;;;6275294;22;20011;-88
2021/01/18 04:32:03;;;;;;;16.65;4.82;;;6.20;99.90;;;;;;6275218;22;20081;-88
2021/01/18 04:34:30;;;;;;;15.65;4.68;;;6.20;99.90;;;;;;6275785;22;20047;-88
2021/01/18 04:36:59;;;;;;;14.27;4.60;;;6.20;99.90;;;;;;6275372;22;20020;-88
2021/01/18 04:39:25;;;;;;;17.58;5.03;;;6.20;99.90;;;;;;6274583;22;20020;-88
2021/01/18 04:41:52;;;;;;;15.15;4.90;;;6.20;99.90;;;;;;6274767;22;20020;-88
2021/01/18 04:44:21;;;;;;;16.88;5.97;;;6.20;99.90;;;;;;6275021;22;20439;-88
2021/01/18 04:46:47;;;;;;;10.88;4.35;;;6.20;99.90;;;;;;6274893;22;20012;-88
2021/01/18 04:49:15;;;;;;;12.68;4.75;;;6.20;99.90;;;;;;6274891;22;20022;-88
2021/01/18 04:51:44;;;;;;;21.35;5.68;;;6.20;99.90;;;;;;6274960;22;20011;-88
2021/01/18 04:54:13;;;;;;;13.77;5.10;;;6.20;99.90;;;;;;6275149;22;20015;-88
2021/01/18 04:56:48;;;;;;;13.52;5.15;;;6.20;99.90;;;;;;6274995;22;20020;-87
2021/01/18 04:59:20;;;;;;;17.65;5.97;;;6.20;99.90;;;;;;6275125;22;20024;-88
2021/01/18 05:01:51;;;;;;;10.88;4.82;;;6.20;99.90;;;;;;6275123;22;20027;-88
2021/01/18 05:04:29;;;;;;;15.48;5.90;;;6.20;99.90;;;;;;6274445;22;20035;-88
2021/01/18 05:06:59;;;;;;;17.40;5.80;;;6.20;99.90;;;;;;6276679;22;20019;-88
2021/01/18 05:09:29;;;;;;;14.93;5.05;;;6.20;99.90;;;;;;6277051;22;20055;-88
2021/01/18 05:11:58;;;;;;;13.30;4.35;;;6.20;99.90;;;;;;6276911;22;20066;-88
2021/01/18 05:14:24;;;;;;;12.98;5.03;;;6.20;99.90;;;;;;6278079;22;20016;-88
2021/01/18 05:16:56;;;;;;;15.23;5.18;;;6.20;99.90;;;;;;6282228;22;20438;-88
2021/01/18 05:19:25;;;;;;;17.58;6.00;;;6.20;99.90;;;;;;6282350;22;20086;-88
2021/01/18 05:21:52;;;;;;;17.70;5.22;;;6.10;99.90;;;;;;6282098;22;20019;-88
2021/01/18 05:24:20;;;;;;;17.10;4.55;;;6.10;99.90;;;;;;6282431;22;20443;-88
2021/01/18 05:27:07;;;;;;;21.27;5.22;;;6.10;99.90;;;;;;6282669;22;20080;-88
2021/01/18 05:29:36;;;;;;;13.88;5.07;;;6.10;99.90;;;;;;6281729;22;20021;-88
2021/01/18 05:32:18;;;;;;;;;;;6.10;99.90;;;;;;6282366;22;20381;-88
2021/01/18 05:34:49;;;;;;;13.07;5.03;;;6.10;99.90;;;;;;6283358;22;20006;-88
2021/01/18 05:37:16;;;;;;;15.35;5.15;;;6.10;99.90;;;;;;6282015;22;20015;-88
2021/01/18 05:39:43;;;;;;;16.30;5.43;;;6.10;99.90;;;;;;6282133;22;20047;-88
2021/01/18 05:42:21;;;;;;;15.10;5.45;;;6.10;99.90;;;;;;6308910;22;20035;-87
2021/01/18 05:44:48;;;;;;;14.43;5.72;;;6.10;99.90;;;;;;6281191;22;20455;-88
2021/01/18 05:47:15;;;;;;;10.38;5.15;;;6.10;99.90;;;;;;6281715;22;20019;-88
2021/01/18 05:49:50;;;;;;;13.77;5.13;;;6.10;99.90;;;;;;6282665;22;20065;-88
2021/01/18 05:52:25;;;;;;;14.13;5.93;;;6.20;99.90;;;;;;6282556;22;20023;-86
2021/01/18 05:55:25;;;;;;;21.75;6.32;;;6.20;99.90;;;;;;6281234;22;20022;-88
2021/01/18 05:57:55;;;;;;;15.38;6.25;;;6.20;99.90;;;;;;6281021;22;20015;-88
2021/01/18 06:00:25;;;;;;;24.10;6.45;;;6.10;99.90;;;;;;6281999;22;20019;-88
2021/01/18 06:02:52;;;;;;;24.83;6.32;;;6.20;99.90;;;;;;6283796;22;20094;-88
2021/01/18 06:05:27;;;;;;;18.20;5.72;;;6.20;99.90;;;;;;6281554;22;20027;-88
2021/01/18 06:07:54;;;;;;;13.32;5.60;;;6.20;99.90;;;;;;6282084;22;20026;-88
2021/01/18 06:10:33;;;;;;;11.52;5.15;;;6.20;99.90;;;;;;6282019;22;20011;-88
2021/01/18 06:13:00;;;;;;;18.38;5.85;;;6.20;99.90;;;;;;6281308;22;20389;-88
2021/01/18 06:15:27;;;;;;;14.45;5.38;;;6.20;99.90;;;;;;6280429;22;20027;-88
2021/01/18 06:17:57;;;;;;;16.60;5.40;;;6.20;99.90;;;;;;6282925;22;20469;-87
2021/01/18 06:20:29;;;;;;;14.05;5.28;;;6.20;99.90;;;;;;6281492;22;20508;-88
2021/01/18 06:22:59;;;;;;;12.43;5.70;;;6.20;99.90;;;;;;6281110;22;20322;-88
2021/01/18 06:25:33;;;;;;;18.33;6.63;;;6.20;99.90;;;;;;6281355;22;20019;-89
2021/01/18 06:27:59;;;;;;;13.90;6.20;;;6.20;99.90;;;;;;6281246;22;20041;-89
2021/01/18 06:30:28;;;;;;;24.83;7.45;;;6.20;99.90;;;;;;6280934;22;20034;-88
2021/01/18 06:32:59;;;;;;;26.10;7.05;;;6.20;99.90;;;;;;6281558;22;20051;-89
2021/01/18 06:35:29;;;;;;;19.67;7.35;;;6.20;99.90;;;;;;6281373;22;20021;-88
2021/01/18 06:38:04;;;;;;;18.63;6.93;;;6.20;99.90;;;;;;6281893;22;20016;-88
2021/01/18 06:40:40;;;;;;;22.60;7.03;;;6.10;99.90;;;;;;6281502;22;20023;-89
2021/01/18 06:43:09;;;;;;;14.80;6.88;;;6.20;99.90;;;;;;6281354;22;20018;-89
2021/01/18 06:45:40;;;;;;;20.50;7.15;;;6.20;99.90;;;;;;6281409;22;20082;-88
2021/01/18 06:48:09;;;;;;;19.42;7.78;;;6.10;99.90;;;;;;6280504;22;20045;-89
2021/01/18 06:50:39;;;;;;;22.13;6.82;;;6.10;99.90;;;;;;6281674;22;20018;-89
2021/01/18 06:53:22;;;;;;;17.17;7.70;;;6.10;99.90;;;;;;6281518;22;20090;-89
2021/01/18 06:56:09;;;;;;;18.15;7.03;;;6.10;99.90;;;;;;6280979;22;20037;-89
2021/01/18 06:58:44;;;;;;;19.75;6.72;;;6.10;99.90;;;;;;6129714;23;20032;-89
2021/01/18 07:01:14;;;;;;;17.58;7.20;;;6.20;99.90;;;;;;6127943;23;20021;-88
2021/01/18 07:03:42;;;;;;;25.33;7.55;;;6.20;99.90;;;;;;6128934;23;20021;-89
2021/01/18 07:06:22;;;;;;;16.13;6.43;;;6.20;99.90;;;;;;6129735;23;20759;-89
2021/01/18 07:08:52;;;;;;;22.13;7.07;;;6.20;99.90;;;;;;6130151;23;20063;-88
2021/01/18 07:11:19;;;;;;;21.60;6.72;;;6.20;99.90;;;;;;6129214;23;20499;-88
2021/01/18 07:13:50;;;;;;;16.73;6.20;;;6.20;99.90;;;;;;6128647;23;20024;-89
2021/01/18 07:16:21;;;;;;;22.13;6.32;;;6.20;99.90;;;;;;6128811;23;20017;-89
2021/01/18 07:18:53;;;;;;;20.10;6.45;;;6.20;99.90;;;;;;6128598;23;20022;-89
2021/01/18 07:21:22;;;;;;;18.05;7.03;;;6.20;99.90;;;;;;6153026;23;20097;-89
2021/01/18 07:23:59;;;;;;;20.50;6.70;;;6.20;99.90;;;;;;6128332;23;20021;-88
2021/01/18 07:26:50;;;;;;;23.00;6.80;;;6.20;99.90;;;;;;6128443;23;20018;-88
2021/01/18 07:29:19;;;;;;;17.55;6.03;;;6.20;99.90;;;;;;6128429;23;20812;-88
2021/01/18 07:31:49;;;;;;;20.85;6.55;;;6.20;99.90;;;;;;6128818;23;20014;-88
2021/01/18 07:34:18;;;;;;;25.77;6.70;;;6.20;99.90;;;;;;6128364;23;20022;-88
2021/01/18 07:36:44;;;;;;;23.98;6.88;;;6.20;99.90;;;;;;6270117;22;20509;-88
2021/01/18 07:39:23;;;;;;;19.08;6.28;;;6.20;99.90;;;;;;6279395;22;20019;-87
2021/01/18 07:41:49;;;;;;;25.00;6.63;;;6.20;99.90;;;;;;6280084;22;20023;-87
2021/01/18 07:44:30;;;;;;;25.48;6.57;;;6.20;99.90;;;;;;6278199;22;20015;-88
2021/01/18 07:47:02;;;;;;;18.77;6.68;;;6.20;99.90;;;;;;6279882;22;20084;-88
2021/01/18 07:49:33;;;;;;;27.45;5.70;;;6.20;99.90;;;;;;6280389;22;20022;-88
2021/01/18 07:52:17;;;;;;;27.77;6.68;;;6.20;99.90;;;;;;6280435;22;20015;-88
2021/01/18 07:54:45;;;;;;;25.88;6.32;;;6.30;99.90;;;;;;6280220;22;20011;-88
2021/01/18 07:57:25;;;;;;;18.63;5.87;;;6.30;99.90;;;;;;6280383;22;20022;-88
2021/01/18 08:00:16;;;;;;;22.90;5.95;;;6.30;99.90;;;;;;6278610;22;20038;-88
2021/01/18 08:02:47;;;;;;;21.42;6.30;;;6.30;99.90;;;;;;6280150;22;20019;-88
2021/01/18 08:05:20;;;;;;;26.20;6.60;;;6.30;99.90;;;;;;6279953;22;20023;-88
2021/01/18 08:08:09;;;;;;;20.70;5.55;;;6.30;99.90;;;;;;6280145;22;20026;-88
2021/01/18 08:10:59;;;;;;;18.73;7.28;;;6.30;99.90;;;;;;6280947;22;20465;-89
2021/01/18 08:13:51;;;;;;;22.05;6.05;;;6.30;99.90;;;;;;6280554;22;20023;-88
2021/01/18 08:16:40;;;;;;;21.33;7.03;;;6.40;99.90;;;;;;6274497;22;20335;-88
2021/01/18 08:19:17;;;;;;;22.10;6.40;;;6.30;99.90;;;;;;6274689;22;20016;-88
2021/01/18 08:21:54;;;;;;;54.05;9.00;;;6.30;99.90;;;;;;6274627;22;20034;-88
2021/01/18 08:24:27;;;;;;;121.82;16.15;;;6.40;99.90;;;;;;6274909;22;20016;-88
2021/01/18 08:26:56;;;;;;;132.68;17.55;;;6.40;99.90;;;;;;6274691;22;20012;-88
2021/01/18 08:29:45;;;;;;;77.28;13.57;;;6.40;99.90;;;;;;6274538;22;20020;-88
2021/01/18 08:34:53;;;;;;;78.93;13.52;;;6.40;99.90;;;;;;6276738;22;20136;-88
2021/01/18 08:37:24;;;;;;;84.93;14.60;;;6.50;99.90;;;;;;6274936;22;20023;-88
2021/01/18 08:40:03;;;;;;;92.57;12.75;;;6.40;99.90;;;;;;6275284;22;20099;-88
2021/01/18 08:42:30;;;;;;;68.60;12.13;;;6.50;99.90;;;;;;6276489;22;20377;-88
2021/01/18 08:45:10;;;;;;;95.40;15.77;;;6.50;99.90;;;;;;6277384;22;20023;-88
2021/01/18 08:47:51;;;;;;;98.10;15.15;;;6.50;99.90;;;;;;6279528;22;20031;-88
2021/01/18 08:50:39;;;;;;;56.20;11.48;;;6.60;99.90;;;;;;6277428;22;20016;-88
2021/01/18 08:53:34;;;;;;;58.05;10.98;;;6.60;99.90;;;;;;6277365;22;20019;-88
2021/01/18 08:56:05;;;;;;;36.67;8.80;;;6.60;99.90;;;;;;6276614;22;20022;-88
2021/01/18 08:58:40;;;;;;;24.75;7.80;;;6.70;99.90;;;;;;6277138;22;20012;-88
2021/01/18 09:01:22;;;;;;;25.98;7.03;;;6.70;99.90;;;;;;6276965;22;20016;-88
2021/01/18 09:03:59;;;;;;;18.23;6.03;;;6.80;99.90;;;;;;6277147;22;20374;-88
2021/01/18 09:06:27;;;;;;;18.75;6.35;;;6.80;99.90;;;;;;6276273;22;20027;-88
2021/01/18 09:09:08;;;;;;;18.90;6.53;;;6.90;99.90;;;;;;6276899;22;20031;-87
2021/01/18 09:11:35;;;;;;;18.50;6.40;;;7.00;99.90;;;;;;6277120;22;20373;-88
2021/01/18 09:14:04;;;;;;;19.60;5.30;;;7.00;99.90;;;;;;6275741;22;20513;-88
2021/01/18 09:16:30;;;;;;;;;;;7.10;99.90;;;;;;6277464;22;20030;-89
2021/01/18 09:19:06;;;;;;;17.83;5.47;;;7.10;99.90;;;;;;6276695;22;19915;-88
2021/01/18 09:21:33;;;;;;;17.98;6.05;;;7.20;99.90;;;;;;6276262;22;20016;-88
2021/01/18 09:24:07;;;;;;;14.80;5.18;;;7.20;99.90;;;;;;6276314;22;20020;-88
2021/01/18 09:26:34;;;;;;;17.40;4.78;;;7.30;99.90;;;;;;6276449;22;20467;-88
2021/01/18 09:29:00;;;;;;;19.73;5.65;;;7.30;99.90;;;;;;6276879;22;20020;-88
2021/01/18 09:31:28;;;;;;;18.15;4.95;;;7.40;99.90;;;;;;6276480;22;20022;-88
2021/01/18 09:33:54;;;;;;;13.68;4.32;;;7.40;99.90;;;;;;6276167;22;20039;-88
2021/01/18 09:36:22;;;;;;;16.90;4.88;;;7.50;99.90;;;;;;6276633;22;20016;-88
2021/01/18 09:38:50;;;;;;;18.38;4.55;;;7.50;99.90;;;;;;6276765;22;20018;-88
2021/01/18 09:41:17;;;;;;;18.13;4.70;;;7.60;99.90;;;;;;6276066;22;20024;-88
2021/01/18 09:43:44;;;;;;;13.38;4.25;;;7.70;99.90;;;;;;6277143;22;20015;-88
2021/01/18 09:46:13;;;;;;;13.80;4.03;;;7.70;99.90;;;;;;6276337;22;20015;-88
2021/01/18 09:48:40;;;;;;;17.45;4.43;;;7.70;99.90;;;;;;6275793;22;20440;-88
2021/01/18 09:51:12;;;;;;;17.60;3.95;;;7.80;99.90;;;;;;6276673;22;20016;-88
2021/01/18 09:53:39;;;;;;;13.18;4.20;;;7.80;99.90;;;;;;6276178;22;20374;-88
2021/01/18 09:56:13;;;;;;;14.60;4.80;;;7.90;99.90;;;;;;6276499;22;20015;-88
2021/01/18 09:58:44;;;;;;;13.45;3.90;;;7.90;99.90;;;;;;6276726;22;20026;-88
2021/01/18 10:01:24;;;;;;;13.15;3.95;;;7.90;99.90;;;;;;6275866;22;20518;-88
2021/01/18 10:03:58;;;;;;;20.52;4.40;;;8.00;99.90;;;;;;6276113;22;20447;-88
2021/01/18 10:06:30;;;;;;;16.67;4.30;;;8.10;99.90;;;;;;6275878;22;20330;-87
2021/01/18 10:09:07;;;;;;;16.15;4.03;;;8.10;99.90;;;;;;6275870;22;20016;-88
2021/01/18 10:11:47;;;;;;;21.55;3.67;;;8.20;99.90;;;;;;6276386;22;20031;-86
2021/01/18 10:14:20;;;;;;;16.77;3.50;;;8.20;99.90;;;;;;6275424;22;20037;-87
2021/01/18 10:17:09;;;;;;;12.60;2.90;;;8.30;99.90;;;;;;6281636;22;20011;-88
2021/01/18 10:19:38;;;;;;;19.05;2.92;;;8.40;99.90;;;;;;6282091;22;20019;-88
2021/01/18 10:22:14;;;;;;;19.45;3.08;;;8.40;99.90;;;;;;6281071;22;20019;-87
2021/01/18 10:24:42;;;;;;;16.30;2.85;;;8.50;99.90;;;;;;6281005;22;20093;-87
2021/01/18 10:27:12;;;;;;;21.33;2.90;;;8.60;99.90;;;;;;6281575;22;20352;-88
2021/01/18 10:29:40;;;;;;;16.08;2.92;;;8.70;99.90;;;;;;6281947;22;20102;-88
2021/01/18 10:32:08;;;;;;;10.80;2.47;;;8.80;99.90;;;;;;6281483;22;20019;-88
2021/01/18 10:34:35;;;;;;;12.32;2.40;;;8.90;99.90;;;;;;6281922;22;20019;-88
2021/01/18 10:37:19;;;;;;;14.20;2.33;;;9.00;99.90;;;;;;6284468;22;20023;-88
2021/01/18 10:39:46;;;;;;;15.57;3.33;;;9.00;99.90;;;;;;6281274;22;20018;-88
2021/01/18 10:42:17;;;;;;;14.30;2.97;;;9.10;99.90;;;;;;6281033;22;20027;-89
2021/01/18 10:44:57;;;;;;;15.13;2.85;;;9.20;99.90;;;;;;6281001;22;20086;-88
2021/01/18 10:47:26;;;;;;;13.65;3.55;;;9.20;99.90;;;;;;6281290;22;20022;-88
2021/01/18 10:49:57;;;;;;;10.15;2.67;;;9.30;99.90;;;;;;6281676;22;20022;-89
2021/01/18 10:52:39;;;;;;;10.60;2.50;;;9.30;99.90;;;;;;6281545;22;20011;-88
2021/01/18 10:55:07;;;;;;;15.68;3.17;;;9.40;99.90;;;;;;6280647;22;20049;-89
2021/01/18 10:57:45;;;;;;;15.25;3.13;;;9.40;99.90;;;;;;6283132;22;20015;-88
2021/01/18 11:00:19;;;;;;;15.98;2.38;;;9.50;99.90;;;;;;6281160;22;20021;-89
2021/01/18 11:03:01;;;;;;;12.95;2.20;;;9.60;99.90;;;;;;6280570;22;20019;-88
2021/01/18 11:05:40;;;;;;;15.50;2.80;;;9.70;99.90;;;;;;6281395;22;20102;-89
2021/01/18 11:08:08;;;;;;;11.85;2.15;;;9.80;99.90;;;;;;6280807;22;20871;-89
2021/01/18 11:10:37;;;;;;;11.10;2.30;;;9.80;99.90;;;;;;6280882;22;20012;-89
2021/01/18 11:13:17;;;;;;;16.23;2.30;;;9.90;99.90;;;;;;6281958;22;20043;-89
2021/01/18 11:15:47;;;;;;;11.43;2.17;;;10.00;99.90;;;;;;6306552;22;20098;-86
2021/01/18 11:18:20;;;;;;;19.23;2.35;;;10.00;99.90;;;;;;6281428;22;20076;-88
2021/01/18 11:20:51;;;;;;;14.77;2.50;;;10.10;99.90;;;;;;6281750;22;20018;-88
2021/01/18 11:23:18;;;;;;;12.43;1.77;;;10.20;99.90;;;;;;6281131;22;20026;-88
2021/01/18 11:25:44;;;;;;;12.93;1.50;;;10.20;99.90;;;;;;6281447;22;20026;-88
2021/01/18 11:28:15;;;;;;;13.20;1.98;;;10.30;99.90;;;;;;6280411;22;20016;-88
2021/01/18 11:30:43;;;;;;;10.93;2.08;;;10.40;99.90;;;;;;6280213;22;20038;-88
2021/01/18 11:33:10;;;;;;;26.15;6.20;;;10.40;99.90;;;;;;6280949;22;20019;-88
2021/01/18 11:35:38;;;;;;;22.70;10.93;;;10.40;99.90;;;;;;6281197;22;20047;-88
2021/01/18 11:38:05;;;;;;;41.03;21.05;;;10.40;99.90;;;;;;6280982;22;20030;-88
2021/01/18 11:40:32;;;;;;;14.35;4.38;;;10.40;99.90;;;;;;6280559;22;20038;-88
2021/01/18 11:42:59;;;;;;;15.45;2.28;;;10.40;99.90;;;;;;6280186;22;20443;-88
2021/01/18 11:45:26;;;;;;;13.40;2.35;;;10.40;99.90;;;;;;6280316;22;20018;-88
2021/01/18 11:47:53;;;;;;;12.25;2.08;;;10.40;99.90;;;;;;6280235;22;20078;-88
2021/01/18 11:50:21;;;;;;;13.60;3.95;;;10.40;99.90;;;;;;6280570;22;20535;-88
2021/01/18 11:52:51;;;;;;;16.98;6.07;;;10.50;99.90;;;;;;6280767;22;20088;-88
2021/01/18 11:55:18;;;;;;;10.05;2.53;;;10.50;99.90;;;;;;6279517;22;20023;-88
2021/01/18 11:57:47;;;;;;;15.70;2.70;;;10.60;99.90;;;;;;6279170;22;20011;-88
2021/01/18 12:00:18;;;;;;;14.70;3.13;;;10.60;99.90;;;;;;6277123;22;20529;-87
2021/01/18 12:02:44;;;;;;;8.70;2.15;;;10.60;99.90;;;;;;6277683;22;20457;-87
2021/01/18 12:05:11;;;;;;;13.80;2.08;;;10.60;99.90;;;;;;6277295;22;20023;-88
2021/01/18 12:07:38;;;;;;;12.18;2.15;;;10.70;99.90;;;;;;6277856;22;20019;-87
2021/01/18 12:10:06;;;;;;;10.02;1.77;;;10.70;99.90;;;;;;6277627;22;20450;-88
2021/01/18 12:12:36;;;;;;;6.95;1.90;;;10.70;99.90;;;;;;6278435;22;20054;-88
2021/01/18 12:15:03;;;;;;;27.63;10.38;;;10.70;99.90;;;;;;6271425;22;20265;-87
2021/01/18 12:17:38;;;;;;;22.42;8.57;;;10.70;99.90;;;;;;6272041;22;20020;-88
2021/01/18 12:20:08;;;;;;;30.33;12.68;;;10.70;99.90;;;;;;6272392;22;20074;-88
2021/01/18 12:22:35;;;;;;;34.30;11.38;;;10.70;99.90;;;;;;6272521;22;20035;-87
2021/01/18 12:25:03;;;;;;;53.85;18.27;;;10.70;99.90;;;;;;6272658;22;20015;-87
2021/01/18 12:27:30;;;;;;;49.88;16.13;;;10.80;99.90;;;;;;6275185;22;20023;-88
2021/01/18 12:29:58;;;;;;;17.80;6.35;;;10.80;99.90;;;;;;6275164;22;20016;-88
2021/01/18 12:32:25;;;;;;;44.93;14.53;;;10.80;99.90;;;;;;6275343;22;20493;-88
2021/01/18 12:34:51;;;;;;;51.78;18.95;;;10.80;99.90;;;;;;6275116;22;20266;-88
2021/01/18 12:37:18;;;;;;;23.42;6.22;;;10.80;99.90;;;;;;6274668;22;20016;-88
2021/01/18 12:39:45;;;;;;;35.85;12.55;;;10.80;99.90;;;;;;6275046;22;20065;-88
2021/01/18 12:42:12;;;;;;;14.63;4.38;;;10.80;99.90;;;;;;6274658;22;20052;-88
2021/01/18 12:44:38;;;;;;;12.85;3.10;;;10.80;99.90;;;;;;6274423;22;20447;-87
2021/01/18 12:47:05;;;;;;;21.90;8.43;;;10.80;99.90;;;;;;6275171;22;20031;-88
2021/01/18 12:49:33;;;;;;;45.22;16.25;;;10.90;99.90;;;;;;6275180;22;20026;-88
2021/01/18 12:51:59;;;;;;;39.15;15.05;;;10.90;99.90;;;;;;6274901;22;20104;-88
2021/01/18 12:54:26;;;;;;;28.30;7.82;;;10.80;99.90;;;;;;6275038;22;20042;-87
2021/01/18 12:56:54;;;;;;;22.27;10.55;;;10.80;99.90;;;;;;6274645;22;20022;-87
2021/01/18 12:59:20;;;;;;;18.80;5.45;;;10.70;99.90;;;;;;6275382;22;20074;-88
2021/01/18 13:01:48;;;;;;;14.70;5.45;;;10.70;99.90;;;;;;6275458;22;20015;-87
2021/01/18 13:04:15;;;;;;;16.17;6.65;;;10.70;99.90;;;;;;6274941;22;20023;-88
2021/01/18 13:06:43;;;;;;;15.98;4.10;;;10.70;99.90;;;;;;6274659;22;20095;-87
2021/01/18 13:09:15;;;;;;;36.90;15.88;;;10.70;99.90;;;;;;6274410;22;20831;-88
2021/01/18 13:11:48;;;;;;;22.63;8.02;;;10.60;99.90;;;;;;6274432;22;20016;-88